Time;durP1;ratioP1;P1;durP2;ratioP2;P2;SDS_P1;SDS_P2;PMS_P1;PMS_P2;Temp;Humidity;BMP_temperature;BMP_pressure;BME280_temperature;BME280_humidity;BME280_pressure;Samples;Min_cycle;Max_cycle;Signal;HPM_P1;HPM_P2
2022/12/31 00:00:41;;;;;;;3.20;2.30;;;9.50;99.90;;;;;;5050686;28;20435;-56
2022/12/31 00:03:09;;;;;;;2.63;2.27;;;10.30;99.90;;;;;;5051663;28;20409;-55
2022/12/31 00:05:36;;;;;;;2.67;2.27;;;10.60;99.90;;;;;;5055546;28;20462;-56
2022/12/31 00:08:03;;;;;;;2.30;2.10;;;10.10;99.90;;;;;;5055522;28;20429;-55
2022/12/31 00:10:33;;;;;;;3.30;2.20;;;10.00;99.90;;;;;;5055173;28;20450;-56
2022/12/31 00:12:59;;;;;;;3.93;2.50;;;9.90;99.90;;;;;;5055600;28;20430;-57
2022/12/31 00:15:26;;;;;;;3.17;2.27;;;10.30;99.90;;;;;;5055596;28;20434;-56
2022/12/31 00:17:53;;;;;;;2.13;1.77;;;10.30;99.90;;;;;;5055282;28;20430;-55
2022/12/31 00:20:19;;;;;;;6.00;2.00;;;10.50;99.90;;;;;;5054817;28;20437;-57
2022/12/31 00:22:46;;;;;;;3.50;2.53;;;10.10;99.90;;;;;;5055152;28;20430;-58
2022/12/31 00:25:12;;;;;;;3.07;2.43;;;9.80;99.90;;;;;;5055274;28;20442;-55
2022/12/31 00:27:40;;;;;;;2.63;1.73;;;10.00;99.90;;;;;;5055077;28;20436;-55
2022/12/31 00:30:08;;;;;;;3.20;2.60;;;9.60;99.90;;;;;;5054472;28;20437;-55
2022/12/31 00:32:35;;;;;;;4.33;2.30;;;10.20;99.90;;;;;;5055560;28;20794;-55
2022/12/31 00:35:02;;;;;;;2.50;1.80;;;10.20;99.90;;;;;;5055124;28;20435;-56
2022/12/31 00:37:28;;;;;;;2.70;1.87;;;9.50;99.90;;;;;;5055218;28;20449;-56
2022/12/31 00:39:55;;;;;;;3.10;2.03;;;10.20;99.90;;;;;;5054468;28;20459;-55
2022/12/31 00:42:22;;;;;;;2.50;1.70;;;10.50;99.90;;;;;;5055021;28;20434;-56
2022/12/31 00:44:50;;;;;;;2.80;2.10;;;9.50;99.90;;;;;;5055049;28;20405;-56
2022/12/31 00:47:16;;;;;;;2.37;1.90;;;10.30;99.90;;;;;;5054869;28;20434;-56
2022/12/31 00:49:43;;;;;;;2.60;1.90;;;10.50;99.90;;;;;;5053777;28;20457;-55
2022/12/31 00:52:12;;;;;;;4.00;1.83;;;10.10;99.90;;;;;;5054982;28;20633;-56
2022/12/31 00:54:39;;;;;;;2.17;1.80;;;10.20;99.90;;;;;;5055059;28;20942;-56
2022/12/31 00:57:05;;;;;;;2.80;1.73;;;9.60;99.90;;;;;;5055058;28;20551;-55
2022/12/31 00:59:32;;;;;;;2.40;1.57;;;10.40;99.90;;;;;;5054260;28;20469;-57
2022/12/31 01:02:00;;;;;;;2.67;2.10;;;9.80;99.90;;;;;;5054762;28;20439;-55
2022/12/31 01:04:26;;;;;;;3.07;1.73;;;10.10;99.90;;;;;;5054726;28;20408;-56
2022/12/31 01:06:53;;;;;;;2.57;1.90;;;10.20;99.90;;;;;;5054605;28;20953;-55
2022/12/31 01:09:20;;;;;;;2.50;1.67;;;9.80;99.90;;;;;;5053925;28;20450;-54
2022/12/31 01:11:49;;;;;;;2.57;1.70;;;10.10;99.90;;;;;;5054660;28;20439;-56
2022/12/31 01:14:18;;;;;;;2.07;1.67;;;9.90;99.90;;;;;;5054426;28;20427;-55
2022/12/31 01:16:46;;;;;;;4.00;1.90;;;9.90;99.90;;;;;;5054208;28;20481;-55
2022/12/31 01:19:16;;;;;;;1.60;1.27;;;10.50;99.90;;;;;;5053713;28;20978;-56
2022/12/31 01:21:44;;;;;;;3.47;1.83;;;10.10;99.90;;;;;;5054563;28;20927;-55
2022/12/31 01:24:11;;;;;;;1.97;1.57;;;9.30;99.90;;;;;;5054303;28;20931;-57
2022/12/31 01:26:39;;;;;;;1.97;1.60;;;10.50;99.90;;;;;;5054528;28;20794;-55
2022/12/31 01:29:06;;;;;;;2.33;1.53;;;10.30;99.90;;;;;;5053428;28;20425;-55
2022/12/31 01:31:34;;;;;;;2.13;1.60;;;9.60;99.90;;;;;;5054715;28;20446;-55
2022/12/31 01:34:00;;;;;;;5.37;1.80;;;9.90;99.90;;;;;;5054264;28;20435;-55
2022/12/31 01:36:31;;;;;;;2.40;1.37;;;9.80;99.90;;;;;;5053969;28;20494;-56
2022/12/31 01:39:00;;;;;;;2.20;1.57;;;10.00;99.90;;;;;;5053417;28;20451;-55
2022/12/31 01:41:29;;;;;;;2.00;1.60;;;10.20;99.90;;;;;;5054151;28;20414;-55
2022/12/31 01:43:58;;;;;;;1.93;1.60;;;10.30;99.90;;;;;;5054022;28;20807;-56
2022/12/31 01:46:29;;;;;;;2.30;1.70;;;10.60;99.90;;;;;;5054091;28;20435;-54
2022/12/31 01:49:00;;;;;;;2.07;1.30;;;10.10;99.90;;;;;;5053175;28;20451;-56
2022/12/31 01:51:33;;;;;;;7.23;1.80;;;10.30;99.90;;;;;;5052567;28;20449;-56
2022/12/31 01:54:01;;;;;;;2.00;1.40;;;10.10;99.90;;;;;;5052535;28;20451;-58
2022/12/31 01:56:27;;;;;;;3.20;1.50;;;10.30;99.90;;;;;;5053497;28;20471;-56
2022/12/31 01:58:56;;;;;;;2.87;2.37;;;10.20;99.90;;;;;;5052828;28;20440;-54
2022/12/31 02:01:26;;;;;;;2.23;1.53;;;10.40;99.90;;;;;;5053456;28;20491;-55
2022/12/31 02:03:56;;;;;;;2.37;1.73;;;10.60;99.90;;;;;;5052378;28;20443;-54
2022/12/31 02:06:27;;;;;;;3.23;1.47;;;10.50;99.90;;;;;;5053487;28;20442;-55
2022/12/31 02:08:56;;;;;;;2.13;1.10;;;10.10;99.90;;;;;;5052756;28;20447;-55
2022/12/31 02:11:26;;;;;;;1.57;1.00;;;10.90;99.90;;;;;;5053453;28;20924;-55
2022/12/31 02:13:55;;;;;;;1.60;0.90;;;10.70;99.90;;;;;;5053650;28;20490;-55
2022/12/31 02:16:31;;;;;;;1.20;0.77;;;10.60;99.90;;;;;;5053089;28;20471;-56
2022/12/31 02:19:07;;;;;;;1.67;1.20;;;10.50;99.90;;;;;;5052486;28;20438;-55
2022/12/31 02:21:55;;;;;;;2.63;1.63;;;10.60;99.90;;;;;;5053002;28;20522;-55
2022/12/31 02:24:54;;;;;;;2.93;1.33;;;10.80;99.90;;;;;;5053186;28;20461;-54
2022/12/31 02:27:37;;;;;;;1.80;1.30;;;10.60;99.90;;;;;;5045499;28;20443;-56
2022/12/31 02:30:12;;;;;;;2.20;1.20;;;10.80;99.90;;;;;;5052320;28;20455;-55
2022/12/31 02:32:48;;;;;;;4.07;1.80;;;10.80;99.90;;;;;;5053122;28;20406;-55
2022/12/31 02:35:21;;;;;;;1.73;1.13;;;10.70;99.90;;;;;;5052889;28;20474;-54
2022/12/31 02:37:52;;;;;;;1.67;0.90;;;10.60;99.90;;;;;;5052824;28;20472;-54
2022/12/31 02:40:21;;;;;;;2.50;1.00;;;10.90;99.90;;;;;;5052143;28;20438;-54
2022/12/31 02:42:48;;;;;;;3.40;2.00;;;10.90;99.90;;;;;;5052997;28;20434;-55
2022/12/31 02:45:19;;;;;;;3.50;1.33;;;11.30;99.90;;;;;;5052556;28;20439;-56
2022/12/31 02:47:57;;;;;;;1.53;0.80;;;10.80;99.90;;;;;;5052650;28;20413;-56
2022/12/31 02:50:35;;;;;;;1.77;0.80;;;11.00;99.90;;;;;;5051978;28;20431;-54
2022/12/31 02:53:14;;;;;;;1.47;0.80;;;10.70;99.90;;;;;;5052625;28;20789;-55
2022/12/31 02:55:48;;;;;;;1.13;0.73;;;10.80;99.90;;;;;;5052584;28;20447;-55
2022/12/31 02:58:22;;;;;;;1.50;0.67;;;10.80;99.90;;;;;;5052407;28;20487;-55
2022/12/31 03:04:30;;;;;;;2.13;0.90;;;10.90;99.90;;;;;;5052224;28;20522;-57
2022/12/31 03:06:47;;;;;;;1.30;0.90;;;10.80;99.90;;;;;;5052277;28;20532;-56
2022/12/31 03:09:13;;;;;;;1.63;1.27;;;10.90;99.90;;;;;;5051524;28;20468;-56
2022/12/31 03:14:25;;;;;;;1.80;1.20;;;10.80;99.90;;;;;;5052653;28;20427;-55
2022/12/31 03:16:53;;;;;;;1.83;1.20;;;10.80;99.90;;;;;;5052046;28;20482;-56
2022/12/31 03:27:34;;;;;;;1.67;1.23;;;10.40;99.90;;;;;;5052065;28;20431;-55
2022/12/31 03:30:01;;;;;;;2.20;1.53;;;10.90;99.90;;;;;;5051282;28;20449;-56
2022/12/31 03:32:29;;;;;;;1.57;1.17;;;10.50;99.90;;;;;;5052046;28;20464;-56
2022/12/31 03:34:55;;;;;;;2.13;1.30;;;10.80;99.90;;;;;;5052198;28;20436;-55
2022/12/31 03:37:22;;;;;;;1.80;1.30;;;10.40;99.90;;;;;;5051892;28;20479;-55
2022/12/31 03:39:49;;;;;;;2.20;1.40;;;10.90;99.90;;;;;;5050389;28;20460;-55
2022/12/31 03:42:15;;;;;;;1.90;1.50;;;10.80;99.90;;;;;;5051900;28;20436;-55
2022/12/31 03:44:42;;;;;;;1.53;0.93;;;10.80;99.90;;;;;;5051781;28;20928;-55
2022/12/31 03:47:08;;;;;;;1.53;1.07;;;10.40;99.90;;;;;;5051850;28;20797;-55
2022/12/31 03:49:36;;;;;;;3.60;1.10;;;11.00;99.90;;;;;;5051045;28;20438;-55
2022/12/31 03:52:05;;;;;;;3.40;0.93;;;10.70;99.90;;;;;;5051910;28;20447;-55
2022/12/31 03:54:32;;;;;;;2.10;0.80;;;11.20;99.90;;;;;;5051937;28;20424;-55
2022/12/31 03:56:58;;;;;;;1.60;1.03;;;11.40;99.90;;;;;;5051707;28;20472;-56
2022/12/31 03:59:25;;;;;;;2.63;1.20;;;11.10;99.90;;;;;;5051117;28;20431;-55
2022/12/31 04:01:52;;;;;;;2.60;1.03;;;10.90;99.90;;;;;;5051691;28;20410;-55
2022/12/31 04:04:18;;;;;;;1.50;1.00;;;10.70;99.90;;;;;;5051753;28;20895;-56
2022/12/31 04:06:46;;;;;;;2.00;1.20;;;10.80;99.90;;;;;;5051845;28;20455;-54
2022/12/31 04:09:13;;;;;;;1.70;1.00;;;11.40;99.90;;;;;;5050907;28;20460;-56
2022/12/31 04:11:40;;;;;;;1.27;0.70;;;10.90;99.90;;;;;;5051699;28;20462;-56
2022/12/31 04:14:06;;;;;;;1.93;1.00;;;11.20;99.90;;;;;;5051516;28;20444;-56
2022/12/31 04:16:33;;;;;;;1.20;0.83;;;11.10;99.90;;;;;;5051689;28;20840;-56
2022/12/31 04:19:00;;;;;;;1.73;0.97;;;11.50;99.90;;;;;;5050545;28;20472;-56
2022/12/31 04:21:26;;;;;;;1.40;1.20;;;11.10;99.90;;;;;;5051493;28;20448;-56
2022/12/31 04:23:54;;;;;;;1.33;0.93;;;11.20;99.90;;;;;;5051423;28;20468;-56
2022/12/31 04:26:21;;;;;;;1.30;0.90;;;11.30;99.90;;;;;;5051450;28;20836;-56
2022/12/31 04:28:48;;;;;;;2.13;1.70;;;11.60;99.90;;;;;;5050757;28;20449;-56
2022/12/31 04:31:14;;;;;;;1.40;0.83;;;10.80;99.90;;;;;;5049990;28;20450;-56
2022/12/31 04:33:41;;;;;;;1.40;0.73;;;11.20;99.90;;;;;;5051667;28;21104;-56
2022/12/31 04:36:08;;;;;;;2.17;1.17;;;11.30;99.90;;;;;;5051429;28;20459;-56
2022/12/31 04:38:35;;;;;;;1.63;0.90;;;11.50;99.90;;;;;;5050562;28;20863;-55
2022/12/31 04:41:19;;;;;;;1.83;0.80;;;11.30;99.90;;;;;;5051255;28;20419;-56
2022/12/31 04:43:49;;;;;;;1.50;1.00;;;11.40;99.90;;;;;;5051765;28;20522;-56
2022/12/31 04:46:16;;;;;;;1.40;1.00;;;11.00;99.90;;;;;;5050080;28;20977;-55
2022/12/31 04:48:43;;;;;;;1.40;1.00;;;10.80;99.90;;;;;;5050690;28;20478;-55
2022/12/31 04:51:10;;;;;;;2.27;1.27;;;11.50;99.90;;;;;;5054144;28;20923;-56
2022/12/31 04:53:37;;;;;;;1.43;1.00;;;11.30;99.90;;;;;;5054987;28;20436;-56
2022/12/31 04:56:06;;;;;;;1.20;0.73;;;11.40;99.90;;;;;;5055021;28;20438;-56
2022/12/31 04:58:33;;;;;;;1.20;0.70;;;11.70;99.90;;;;;;5053997;28;20494;-55
2022/12/31 05:01:00;;;;;;;1.27;0.80;;;11.50;99.90;;;;;;5054834;28;20834;-56
2022/12/31 05:03:27;;;;;;;1.10;0.60;;;11.40;99.90;;;;;;5055124;28;20440;-55
2022/12/31 05:05:54;;;;;;;1.50;0.80;;;11.60;99.90;;;;;;5054721;28;20443;-56
2022/12/31 05:08:21;;;;;;;1.87;1.00;;;11.80;99.90;;;;;;5054445;28;20432;-55
2022/12/31 05:10:48;;;;;;;1.33;0.90;;;11.10;99.90;;;;;;5054337;28;20456;-55
2022/12/31 05:13:16;;;;;;;1.40;1.00;;;11.60;99.90;;;;;;5054901;28;20439;-56
2022/12/31 05:15:43;;;;;;;1.53;0.80;;;11.50;99.90;;;;;;5054662;28;20898;-55
2022/12/31 05:18:10;;;;;;;2.27;1.00;;;11.40;99.90;;;;;;5054280;28;20484;-55
2022/12/31 05:20:36;;;;;;;3.93;0.90;;;12.00;99.90;;;;;;5053788;28;20444;-55
2022/12/31 05:23:03;;;;;;;1.37;0.90;;;11.70;99.90;;;;;;5053267;28;20449;-56
2022/12/31 05:25:30;;;;;;;1.50;1.10;;;11.50;99.90;;;;;;5053139;28;20924;-55
2022/12/31 05:27:56;;;;;;;3.30;1.03;;;11.60;99.90;;;;;;5054132;28;20413;-56
2022/12/31 05:30:25;;;;;;;2.47;1.20;;;11.50;99.90;;;;;;5053630;28;20433;-55
2022/12/31 05:32:52;;;;;;;1.80;1.00;;;11.40;99.90;;;;;;5054255;28;20426;-55
2022/12/31 05:35:19;;;;;;;1.40;0.80;;;11.30;99.90;;;;;;5054112;28;20443;-56
2022/12/31 05:37:45;;;;;;;1.33;0.87;;;11.80;99.90;;;;;;5054046;28;20989;-55
2022/12/31 05:40:13;;;;;;;2.07;0.97;;;11.90;99.90;;;;;;5053531;28;20432;-56
2022/12/31 05:42:40;;;;;;;1.47;0.90;;;11.60;99.90;;;;;;5052758;28;20456;-55
2022/12/31 05:45:07;;;;;;;2.40;0.90;;;11.80;99.90;;;;;;5054109;28;20405;-56
2022/12/31 05:47:35;;;;;;;2.47;1.10;;;12.00;99.90;;;;;;5054030;28;20444;-56
2022/12/31 05:50:02;;;;;;;3.20;0.93;;;11.80;99.90;;;;;;5053133;28;20555;-56
2022/12/31 05:52:28;;;;;;;1.87;1.10;;;12.20;99.90;;;;;;5053971;28;20436;-56
2022/12/31 05:54:55;;;;;;;1.70;0.77;;;11.90;99.90;;;;;;5053773;28;20754;-56
2022/12/31 05:57:22;;;;;;;1.90;1.50;;;11.30;99.90;;;;;;5053937;28;20481;-56
2022/12/31 05:59:49;;;;;;;2.50;1.70;;;11.90;99.90;;;;;;5052986;28;20758;-56
2022/12/31 06:02:15;;;;;;;2.70;1.43;;;12.00;99.90;;;;;;5052557;28;20416;-55
2022/12/31 06:04:43;;;;;;;1.30;1.00;;;12.40;99.90;;;;;;5053968;28;20441;-56
2022/12/31 06:07:10;;;;;;;1.97;1.17;;;11.70;99.90;;;;;;5053692;28;20895;-55
2022/12/31 06:09:36;;;;;;;1.80;1.30;;;11.90;99.90;;;;;;5052775;28;20458;-55
2022/12/31 06:12:05;;;;;;;1.70;1.03;;;12.40;99.90;;;;;;5052439;28;20451;-55
2022/12/31 06:14:33;;;;;;;1.43;1.07;;;11.90;99.90;;;;;;5052155;28;20445;-55
2022/12/31 06:17:00;;;;;;;1.57;0.90;;;11.50;99.90;;;;;;5053308;28;20449;-55
2022/12/31 06:19:26;;;;;;;1.30;0.97;;;12.00;99.90;;;;;;5052514;28;20499;-55
2022/12/31 06:21:54;;;;;;;1.70;1.10;;;11.80;99.90;;;;;;5053294;28;20451;-54
2022/12/31 06:24:21;;;;;;;1.90;1.20;;;12.10;99.90;;;;;;5053239;28;20437;-55
2022/12/31 06:26:47;;;;;;;2.07;1.00;;;12.00;99.90;;;;;;5053282;28;20436;-55
2022/12/31 06:29:14;;;;;;;1.40;0.93;;;11.90;99.90;;;;;;5052438;28;20426;-55
2022/12/31 06:31:41;;;;;;;1.20;0.90;;;12.00;99.90;;;;;;5051895;28;20452;-54
2022/12/31 06:34:07;;;;;;;2.10;0.90;;;11.70;99.90;;;;;;5053181;28;20491;-55
2022/12/31 06:36:34;;;;;;;1.90;1.07;;;12.00;99.90;;;;;;5053035;28;20468;-55
2022/12/31 06:39:02;;;;;;;1.43;0.80;;;12.00;99.90;;;;;;5052150;28;20489;-55
2022/12/31 06:41:28;;;;;;;1.40;0.90;;;12.00;99.90;;;;;;5052984;28;20441;-56
2022/12/31 06:43:55;;;;;;;2.50;1.43;;;12.20;99.90;;;;;;5052725;28;20442;-56
2022/12/31 06:46:22;;;;;;;7.17;1.23;;;11.80;99.90;;;;;;5052785;28;20416;-55
2022/12/31 06:48:48;;;;;;;2.67;1.00;;;12.30;99.90;;;;;;5052043;28;20517;-55
2022/12/31 06:51:17;;;;;;;1.80;0.80;;;11.90;99.90;;;;;;5052930;28;20478;-55
2022/12/31 06:53:44;;;;;;;1.70;0.73;;;12.40;99.90;;;;;;5052957;28;20845;-55
2022/12/31 06:56:17;;;;;;;2.50;1.00;;;12.50;99.90;;;;;;5052555;28;20409;-55
2022/12/31 06:58:44;;;;;;;1.57;1.00;;;12.30;99.90;;;;;;5052053;28;20487;-55
2022/12/31 07:01:32;;;;;;;1.63;0.70;;;12.30;99.90;;;;;;5052326;28;20439;-55
2022/12/31 07:04:05;;;;;;;1.63;1.20;;;12.20;99.90;;;;;;5052613;28;20957;-56
2022/12/31 07:06:38;;;;;;;1.97;0.93;;;12.40;99.90;;;;;;5052550;28;20916;-55
2022/12/31 07:09:10;;;;;;;2.23;0.90;;;12.40;99.90;;;;;;5051681;28;20795;-55
2022/12/31 07:11:47;;;;;;;1.57;0.90;;;12.70;99.90;;;;;;5052342;28;20444;-55
2022/12/31 07:14:28;;;;;;;1.57;0.80;;;12.40;99.90;;;;;;5052208;28;20428;-55
2022/12/31 07:17:03;;;;;;;1.37;1.00;;;12.50;99.90;;;;;;5052783;28;20440;-55
2022/12/31 07:19:41;;;;;;;1.77;0.80;;;12.40;99.90;;;;;;5051730;28;20493;-56
2022/12/31 07:22:14;;;;;;;1.30;0.70;;;13.00;99.90;;;;;;5052077;28;20903;-55
2022/12/31 07:24:41;;;;;;;4.20;0.90;;;12.10;99.90;;;;;;5051982;28;20476;-54
2022/12/31 07:27:34;;;;;;;1.27;0.90;;;12.60;99.90;;;;;;5052065;28;20434;-56
2022/12/31 07:30:04;;;;;;;1.30;0.73;;;12.50;99.90;;;;;;5051321;28;20455;-55
2022/12/31 07:32:53;;;;;;;2.33;1.07;;;13.00;99.90;;;;;;5051961;28;20427;-55
2022/12/31 07:35:29;;;;;;;1.70;1.00;;;12.60;99.90;;;;;;5051916;28;20413;-55
2022/12/31 07:38:04;;;;;;;3.30;0.90;;;12.70;99.90;;;;;;5051703;28;20454;-55
2022/12/31 07:40:43;;;;;;;1.73;0.70;;;12.80;99.90;;;;;;5051611;28;20433;-55
2022/12/31 07:43:19;;;;;;;1.47;0.70;;;12.60;99.90;;;;;;5050565;28;20455;-55
2022/12/31 07:45:50;;;;;;;1.37;0.77;;;12.70;99.90;;;;;;5051775;28;20465;-56
2022/12/31 07:48:24;;;;;;;1.87;1.00;;;12.40;99.90;;;;;;5051772;28;20441;-55
2022/12/31 07:50:53;;;;;;;1.67;1.17;;;13.00;99.90;;;;;;5051832;28;20984;-55
2022/12/31 07:53:20;;;;;;;2.00;1.40;;;13.00;99.90;;;;;;5051880;28;20453;-55
2022/12/31 07:55:49;;;;;;;1.53;0.90;;;13.20;99.90;;;;;;5051748;28;20500;-55
2022/12/31 07:58:22;;;;;;;1.33;0.60;;;13.40;99.90;;;;;;5051478;28;20495;-56
2022/12/31 08:00:50;;;;;;;2.07;1.27;;;13.30;99.90;;;;;;5051329;28;20439;-55
2022/12/31 08:03:32;;;;;;;3.53;1.40;;;13.60;99.90;;;;;;5051655;28;20437;-56
2022/12/31 08:06:10;;;;;;;4.70;0.93;;;13.20;99.90;;;;;;5051662;28;20431;-55
2022/12/31 08:08:49;;;;;;;1.50;0.63;;;13.40;99.90;;;;;;5050670;28;20481;-56
2022/12/31 08:11:25;;;;;;;1.87;0.70;;;13.30;99.90;;;;;;5051680;28;20800;-56
2022/12/31 08:13:55;;;;;;;1.43;1.00;;;13.20;99.90;;;;;;5051660;28;20441;-55
2022/12/31 08:16:23;;;;;;;1.20;0.70;;;13.50;99.90;;;;;;5051554;28;20405;-55
2022/12/31 08:18:50;;;;;;;1.87;0.83;;;13.30;99.90;;;;;;5050512;28;20910;-55
2022/12/31 08:21:29;;;;;;;1.37;0.80;;;13.50;99.90;;;;;;5051440;28;20450;-55
2022/12/31 08:24:08;;;;;;;1.70;1.10;;;13.90;99.90;;;;;;5051662;28;20941;-55
2022/12/31 08:26:40;;;;;;;1.67;0.80;;;13.60;99.90;;;;;;5055157;28;20426;-55
2022/12/31 08:29:25;;;;;;;1.80;0.97;;;13.80;99.90;;;;;;5054657;28;20461;-56
2022/12/31 08:31:59;;;;;;;1.77;1.00;;;13.60;99.90;;;;;;5055391;28;20841;-56
2022/12/31 08:34:37;;;;;;;1.47;0.87;;;13.80;99.90;;;;;;5055370;28;20430;-55
2022/12/31 08:37:10;;;;;;;2.53;0.93;;;13.30;99.90;;;;;;5055117;28;20430;-55
2022/12/31 08:39:50;;;;;;;1.10;0.80;;;13.30;99.90;;;;;;5054217;28;20493;-55
2022/12/31 08:42:25;;;;;;;2.07;1.30;;;13.80;99.90;;;;;;5054867;28;20442;-55
2022/12/31 08:45:01;;;;;;;1.90;1.10;;;13.40;99.90;;;;;;5054957;28;20448;-55
2022/12/31 08:47:38;;;;;;;2.17;1.00;;;14.10;99.90;;;;;;5055062;28;20838;-56
2022/12/31 08:50:05;;;;;;;2.83;1.20;;;13.60;99.90;;;;;;5054210;28;20804;-56
2022/12/31 08:52:32;;;;;;;3.60;1.20;;;13.90;99.90;;;;;;5055045;28;20437;-55
2022/12/31 08:55:00;;;;;;;1.70;1.03;;;14.20;99.90;;;;;;5054809;28;20927;-55
2022/12/31 08:57:34;;;;;;;3.33;0.93;;;14.10;99.90;;;;;;5054950;28;20946;-55
2022/12/31 09:00:07;;;;;;;2.73;1.10;;;14.20;99.90;;;;;;5054103;28;20486;-56
2022/12/31 09:03:05;;;;;;;3.47;1.33;;;14.40;99.90;;;;;;5054598;28;20430;-55
2022/12/31 09:05:38;;;;;;;1.63;1.33;;;14.30;99.90;;;;;;5053851;28;20462;-56
2022/12/31 09:08:16;;;;;;;1.43;0.90;;;14.20;99.90;;;;;;5054579;28;20453;-55
2022/12/31 09:10:51;;;;;;;2.87;2.00;;;14.40;99.90;;;;;;5053937;28;20534;-56
2022/12/31 09:13:28;;;;;;;2.63;1.40;;;14.40;99.90;;;;;;5054608;28;20941;-55
2022/12/31 09:16:04;;;;;;;1.43;1.00;;;14.30;99.90;;;;;;5054588;28;20426;-56
2022/12/31 09:18:35;;;;;;;4.20;1.80;;;14.60;99.90;;;;;;5054165;28;20493;-56
2022/12/31 09:21:02;;;;;;;3.73;1.27;;;14.60;99.90;;;;;;5054151;28;20792;-56
2022/12/31 09:23:29;;;;;;;1.57;1.00;;;14.70;99.90;;;;;;5054206;28;20820;-56
2022/12/31 09:26:05;;;;;;;1.97;0.90;;;14.80;99.90;;;;;;5054533;28;20962;-57
2022/12/31 09:28:42;;;;;;;2.90;1.17;;;14.70;99.90;;;;;;5053372;28;20535;-56
2022/12/31 09:31:15;;;;;;;1.97;1.27;;;14.70;99.90;;;;;;5054202;28;20442;-57
2022/12/31 09:33:51;;;;;;;2.90;1.80;;;15.00;99.90;;;;;;5054161;28;20452;-56
2022/12/31 09:36:22;;;;;;;1.40;0.90;;;14.90;99.90;;;;;;5053935;28;20420;-56
2022/12/31 09:38:54;;;;;;;2.90;1.30;;;15.00;99.90;;;;;;5052959;28;20471;-56
2022/12/31 09:41:46;;;;;;;2.20;1.00;;;14.80;99.90;;;;;;5054085;28;20434;-56
2022/12/31 09:44:52;;;;;;;2.27;1.30;;;15.30;99.90;;;;;;5053863;28;20804;-55
2022/12/31 09:47:54;;;;;;;3.23;1.30;;;15.10;99.90;;;;;;5053600;28;20442;-55
2022/12/31 09:50:44;;;;;;;2.50;1.17;;;15.20;99.90;;;;;;5053060;28;20434;-57
2022/12/31 09:53:33;;;;;;;1.40;0.97;;;15.20;99.90;;;;;;5052374;28;20930;-55
2022/12/31 09:56:08;;;;;;;1.77;1.33;;;15.20;99.90;;;;;;5042468;28;20461;-56
2022/12/31 09:58:44;;;;;;;1.43;0.97;;;15.20;99.90;;;;;;5053026;28;20757;-55
2022/12/31 10:01:24;;;;;;;2.70;1.17;;;15.30;99.90;;;;;;5053713;28;20431;-56
2022/12/31 10:04:10;;;;;;;3.63;2.10;;;15.40;99.90;;;;;;5053680;28;20450;-54
2022/12/31 10:06:45;;;;;;;2.10;1.40;;;15.30;99.90;;;;;;5053602;28;20442;-56
2022/12/31 10:09:25;;;;;;;1.90;1.20;;;15.40;99.90;;;;;;5052509;28;20787;-57
2022/12/31 10:12:05;;;;;;;3.43;1.20;;;15.80;99.90;;;;;;5053420;28;20441;-57
2022/12/31 10:14:48;;;;;;;3.00;1.20;;;15.30;99.90;;;;;;5053590;28;20430;-55
2022/12/31 10:17:27;;;;;;;1.90;1.20;;;15.50;99.90;;;;;;5053141;28;20431;-55
2022/12/31 10:20:16;;;;;;;2.57;1.93;;;15.40;99.90;;;;;;5052350;28;20585;-56
2022/12/31 10:22:53;;;;;;;3.93;1.10;;;15.50;99.90;;;;;;5053093;28;20809;-55
2022/12/31 10:25:44;;;;;;;2.23;0.90;;;15.80;99.90;;;;;;5052986;28;20445;-56
2022/12/31 10:28:28;;;;;;;3.20;1.40;;;15.40;99.90;;;;;;5052911;28;20472;-55
2022/12/31 10:31:06;;;;;;;3.13;1.50;;;15.50;99.90;;;;;;5052914;28;20432;-55
2022/12/31 10:33:42;;;;;;;4.47;3.90;;;15.40;99.90;;;;;;5052817;28;20427;-55
2022/12/31 10:36:19;;;;;;;5.20;1.87;;;15.90;99.90;;;;;;5052904;28;20440;-55
2022/12/31 10:38:55;;;;;;;4.40;3.80;;;15.60;99.90;;;;;;5052241;28;20509;-56
2022/12/31 10:41:59;;;;;;;3.80;1.80;;;15.50;99.90;;;;;;5052475;28;20521;-54
2022/12/31 10:44:58;;;;;;;2.40;1.70;;;15.50;99.90;;;;;;5031074;28;20439;-55
2022/12/31 10:47:52;;;;;;;4.30;2.50;;;15.60;99.90;;;;;;5052302;28;20466;-55
2022/12/31 10:50:49;;;;;;;3.43;1.80;;;15.70;99.90;;;;;;5052004;28;20500;-55
2022/12/31 10:53:55;;;;;;;2.10;1.20;;;15.70;99.90;;;;;;5052512;28;20427;-56
2022/12/31 10:56:47;;;;;;;4.17;2.87;;;15.70;99.90;;;;;;4994220;28;20454;-55
2022/12/31 10:59:51;;;;;;;4.67;2.47;;;15.70;99.90;;;;;;5051352;28;20479;-56
2022/12/31 11:02:51;;;;;;;2.27;1.80;;;15.80;99.90;;;;;;5052373;28;20404;-55
2022/12/31 11:05:46;;;;;;;2.43;1.43;;;15.80;99.90;;;;;;5050484;28;20481;-54
2022/12/31 11:08:30;;;;;;;1.93;1.50;;;15.80;99.90;;;;;;5052516;28;20457;-56
2022/12/31 11:11:11;;;;;;;2.97;1.80;;;15.70;99.90;;;;;;5052669;28;20424;-56
2022/12/31 11:14:08;;;;;;;5.83;2.50;;;15.70;99.90;;;;;;5052631;28;20437;-56
2022/12/31 11:16:47;;;;;;;2.67;1.77;;;15.80;99.90;;;;;;5052065;28;20440;-55
2022/12/31 11:19:21;;;;;;;4.67;1.57;;;15.70;99.90;;;;;;5051551;28;20579;-56
2022/12/31 11:22:07;;;;;;;5.20;1.80;;;15.80;99.90;;;;;;5052152;28;20438;-56
2022/12/31 11:24:54;;;;;;;2.83;1.30;;;15.80;99.90;;;;;;5052140;28;20440;-57
2022/12/31 11:27:38;;;;;;;3.47;2.03;;;16.00;99.90;;;;;;5051691;28;20450;-57
2022/12/31 11:30:19;;;;;;;5.13;2.00;;;16.00;99.90;;;;;;5050992;28;20449;-58
2022/12/31 11:33:03;;;;;;;5.33;2.33;;;15.80;99.90;;;;;;5051920;28;20449;-57
2022/12/31 11:35:46;;;;;;;3.60;2.03;;;15.70;99.90;;;;;;5051861;28;20951;-56
2022/12/31 11:38:21;;;;;;;2.73;1.80;;;15.80;99.90;;;;;;5051410;28;20988;-55
2022/12/31 11:40:59;;;;;;;3.60;2.37;;;15.70;99.90;;;;;;5051399;28;20494;-56
2022/12/31 11:43:33;;;;;;;3.33;2.67;;;15.80;99.90;;;;;;5051678;28;20438;-57
2022/12/31 11:46:25;;;;;;;5.67;2.60;;;15.80;99.90;;;;;;5051445;28;20443;-57
2022/12/31 11:49:04;;;;;;;4.17;3.37;;;15.90;99.90;;;;;;5050785;28;20972;-56
2022/12/31 11:51:51;;;;;;;6.40;3.33;;;15.90;99.90;;;;;;5051545;28;20430;-55
2022/12/31 11:54:36;;;;;;;7.57;2.00;;;15.90;99.90;;;;;;5049898;28;20434;-56
2022/12/31 11:57:13;;;;;;;2.50;1.70;;;16.00;99.90;;;;;;5051472;28;20436;-56
2022/12/31 11:59:40;;;;;;;4.87;2.30;;;16.00;99.90;;;;;;5049955;28;20989;-56
2022/12/31 12:02:24;;;;;;;3.70;2.03;;;15.90;99.90;;;;;;5055190;28;20435;-57
2022/12/31 12:04:52;;;;;;;3.13;1.60;;;15.90;99.90;;;;;;5054242;28;20491;-55
2022/12/31 12:07:19;;;;;;;3.03;1.80;;;16.10;99.90;;;;;;5055131;28;20434;-57
2022/12/31 12:09:46;;;;;;;6.40;1.87;;;16.20;99.90;;;;;;5054607;28;20453;-56
2022/12/31 12:12:14;;;;;;;7.33;1.60;;;16.20;99.90;;;;;;5055716;28;20865;-55
2022/12/31 12:14:42;;;;;;;3.93;1.50;;;16.40;99.90;;;;;;5055543;28;20474;-56
2022/12/31 12:17:14;;;;;;;4.90;2.20;;;16.30;99.90;;;;;;5055257;28;20439;-55
2022/12/31 12:19:45;;;;;;;3.97;1.93;;;16.40;99.90;;;;;;5054711;28;20487;-56
2022/12/31 12:22:13;;;;;;;2.37;1.43;;;16.30;99.90;;;;;;5055578;28;20912;-55
2022/12/31 12:24:40;;;;;;;4.30;1.70;;;16.20;99.90;;;;;;5055469;28;20440;-55
2022/12/31 12:27:21;;;;;;;2.40;1.20;;;16.40;99.90;;;;;;5055137;28;20428;-56
2022/12/31 12:29:48;;;;;;;2.50;1.17;;;16.60;99.90;;;;;;5054513;28;20504;-57
2022/12/31 12:32:18;;;;;;;3.40;1.17;;;16.50;99.90;;;;;;5054984;28;20807;-57
2022/12/31 12:34:45;;;;;;;2.93;1.30;;;16.50;99.90;;;;;;5055708;28;20748;-57
2022/12/31 12:37:25;;;;;;;4.53;1.70;;;16.60;99.90;;;;;;5054970;28;20440;-55
2022/12/31 12:39:56;;;;;;;2.07;1.20;;;16.50;99.90;;;;;;5054413;28;20487;-56
2022/12/31 12:42:23;;;;;;;3.60;1.67;;;16.30;99.90;;;;;;5054711;28;20433;-57
2022/12/31 12:45:00;;;;;;;2.57;1.40;;;16.80;99.90;;;;;;5054880;28;20432;-56
2022/12/31 12:47:29;;;;;;;2.53;1.60;;;16.60;99.90;;;;;;5055065;28;20924;-55
2022/12/31 12:49:56;;;;;;;8.37;6.90;;;16.60;99.90;;;;;;5054034;28;20488;-56
2022/12/31 12:52:45;;;;;;;7.30;2.83;;;16.70;99.90;;;;;;5054698;28;20433;-56
2022/12/31 12:55:19;;;;;;;3.73;1.43;;;16.90;99.90;;;;;;5054875;28;20926;-56
2022/12/31 12:57:55;;;;;;;3.60;1.70;;;16.80;99.90;;;;;;5054836;28;20439;-56
2022/12/31 13:00:28;;;;;;;3.70;1.50;;;16.60;99.90;;;;;;5054029;28;20564;-56
2022/12/31 13:03:32;;;;;;;3.30;1.20;;;16.50;99.90;;;;;;5054560;28;20451;-56
2022/12/31 13:06:10;;;;;;;2.50;1.50;;;16.80;99.90;;;;;;5054354;28;20448;-55
2022/12/31 13:08:54;;;;;;;3.50;1.63;;;16.90;99.90;;;;;;5053416;28;20463;-56
2022/12/31 13:11:32;;;;;;;9.57;2.80;;;16.90;99.90;;;;;;5053847;28;20432;-56
2022/12/31 13:14:05;;;;;;;3.27;1.70;;;16.90;99.90;;;;;;5054678;28;20436;-56
2022/12/31 13:16:36;;;;;;;3.73;1.60;;;17.00;99.90;;;;;;5054525;28;20436;-57
2022/12/31 13:19:11;;;;;;;11.57;1.87;;;16.70;99.90;;;;;;5053264;28;20476;-56
2022/12/31 13:21:47;;;;;;;5.00;2.13;;;17.00;99.90;;;;;;5054190;28;20488;-58
2022/12/31 13:24:25;;;;;;;3.30;1.80;;;16.90;99.90;;;;;;5054211;28;20431;-57
2022/12/31 13:26:57;;;;;;;5.00;1.50;;;17.00;99.90;;;;;;5054503;28;20787;-56
2022/12/31 13:29:28;;;;;;;3.33;1.47;;;17.20;99.90;;;;;;5053620;28;20966;-56
2022/12/31 13:31:57;;;;;;;3.70;1.57;;;17.00;99.90;;;;;;5054242;28;20447;-56